createdAt,value
2022-07-31T00:00:28.392Z,99852.22
2022-07-31T00:01:31.157Z,99852.07
2022-07-31T00:02:33.335Z,99844.28
2022-07-31T00:03:36.220Z,99849.56
2022-07-31T00:04:38.562Z,99842.45
2022-07-31T00:05:41.911Z,99841.89
2022-07-31T00:06:44.952Z,99844.39
2022-07-31T00:07:47.019Z,99837.30
2022-07-31T00:08:49.376Z,99842.59
2022-07-31T00:09:53.641Z,99836.45
2022-07-31T00:10:56.153Z,99839.66
2022-07-31T00:11:58.588Z,99823.66
2022-07-31T00:13:01.486Z,99823.66
2022-07-31T00:14:03.574Z,99832.58
2022-07-31T00:15:08.403Z,99829.79
2022-07-31T00:16:11.346Z,99827.29
2022-07-31T00:17:13.417Z,99826.73
2022-07-31T00:18:15.552Z,99824.34
2022-07-31T00:19:17.816Z,99821.27
2022-07-31T00:20:21.610Z,99825.59
2022-07-31T00:21:23.680Z,99821.13
2022-07-31T00:22:26.329Z,99823.66
2022-07-31T00:23:29.197Z,99823.66
2022-07-31T00:24:32.431Z,99817.52
2022-07-31T00:25:35.262Z,99816.41
2022-07-31T00:26:37.809Z,99818.08
2022-07-31T00:27:41.353Z,99823.37
2022-07-31T00:28:43.666Z,99826.02
2022-07-31T00:29:45.732Z,99823.66
2022-07-31T00:30:48.099Z,99828.23
2022-07-31T00:31:50.667Z,99820.56
2022-07-31T00:32:52.835Z,99815.27
2022-07-31T00:33:55.016Z,99823.92
2022-07-31T00:34:57.134Z,99823.75
2022-07-31T00:35:59.392Z,99823.90
2022-07-31T00:37:03.248Z,99816.11
2022-07-31T00:38:26.138Z,99819.72
2022-07-31T00:39:10.880Z,99819.01
2022-07-31T00:40:16.011Z,99812.33
2022-07-31T00:41:18.321Z,99819.30
2022-07-31T00:42:24.241Z,99815.66
2022-07-31T00:43:27.415Z,99816.36
2022-07-31T00:44:31.544Z,99813.47
2022-07-31T00:45:34.472Z,99806.50
2022-07-31T00:46:41.142Z,99813.30
2022-07-31T00:47:44.434Z,99804.25
2022-07-31T00:48:46.619Z,99809.39
2022-07-31T00:49:49.475Z,99808.43
2022-07-31T00:50:52.138Z,99802.16
2022-07-31T00:51:54.091Z,99800.22
2022-07-31T00:52:57.265Z,99801.58
2022-07-31T00:53:59.579Z,99801.58
2022-07-31T00:55:01.937Z,99804.48
2022-07-31T00:56:05.470Z,99801.73
2022-07-31T00:57:07.805Z,99802.55
2022-07-31T00:58:09.954Z,99806.16
2022-07-31T00:59:12.006Z,99806.16
2022-07-31T01:00:15.487Z,99806.30
2022-07-31T01:01:19.471Z,99809.66
2022-07-31T01:02:21.991Z,99805.73
2022-07-31T01:03:24.180Z,99812.49
2022-07-31T01:04:26.754Z,99811.53
2022-07-31T01:05:30.278Z,99819.03
2022-07-31T01:06:32.801Z,99813.46
2022-07-31T01:07:37.192Z,99818.45
2022-07-31T01:08:39.778Z,99810.39
2022-07-31T01:09:41.915Z,99807.88
2022-07-31T01:11:03.322Z,99800.92
2022-07-31T01:12:13.464Z,99804.67
2022-07-31T01:13:19.295Z,99799.64
2022-07-31T01:14:25.101Z,99808.39
2022-07-31T01:15:29.045Z,99807.56
2022-07-31T01:16:35.713Z,99809.24
2022-07-31T01:17:41.049Z,99810.06
2022-07-31T01:18:44.471Z,99808.39
2022-07-31T01:19:51.120Z,99805.70
2022-07-31T01:20:56.747Z,99806.70
2022-07-31T01:22:33.630Z,99803.34
2022-07-31T01:23:42.621Z,99808.34
2022-07-31T01:24:57.679Z,99812.67
2022-07-31T01:26:21.584Z,99806.23
2022-07-31T01:27:51.885Z,99802.63
2022-07-31T01:29:06.719Z,99803.59
2022-07-31T01:30:10.629Z,99799.98
2022-07-31T01:31:27.619Z,99803.48
2022-07-31T01:32:27.766Z,99794.70
2022-07-31T01:33:35.519Z,99798.06
2022-07-31T01:34:51.763Z,99795.81
2022-07-31T01:35:57.750Z,99798.98
2022-07-31T01:37:40.054Z,99801.38
2022-07-31T01:38:45.915Z,99799.41
2022-07-31T01:39:52.770Z,99790.48
2022-07-31T01:42:15.591Z,99784.41
2022-07-31T01:43:25.170Z,99780.16
2022-07-31T01:44:29.557Z,99783.33
2022-07-31T01:45:33.159Z,99786.69
2022-07-31T01:46:41.711Z,99784.05
2022-07-31T01:47:43.658Z,99785.39
2022-07-31T01:48:47.952Z,99791.25
2022-07-31T01:49:54.270Z,99794.86
2022-07-31T01:50:59.838Z,99783.99
2022-07-31T01:52:04.594Z,99786.39
2022-07-31T01:53:09.713Z,99789.72
2022-07-31T01:54:15.001Z,99787.46
2022-07-31T01:55:17.700Z,99786.64
2022-07-31T01:56:22.471Z,99783.28
2022-07-31T01:57:26.860Z,99780.06
2022-07-31T01:58:33.846Z,99783.66
2022-07-31T01:59:42.550Z,99774.48
2022-07-31T02:00:48.797Z,99780.58
2022-07-31T02:01:52.673Z,99777.94
2022-07-31T02:02:56.400Z,99779.76
2022-07-31T02:04:01.823Z,99773.37
2022-07-31T02:05:07.255Z,99772.52
2022-07-31T02:06:14.386Z,99767.00
2022-07-31T02:07:18.459Z,99773.52
2022-07-31T02:08:22.325Z,99769.50
2022-07-31T02:09:28.278Z,99774.67
2022-07-31T02:10:31.857Z,99772.85
2022-07-31T02:11:35.810Z,99773.81
2022-07-31T02:12:41.431Z,99775.05
2022-07-31T02:13:47.091Z,99773.09
2022-07-31T02:14:51.136Z,99775.73
2022-07-31T02:15:56.001Z,99779.18
2022-07-31T02:16:59.771Z,99773.56
2022-07-31T02:18:04.878Z,99778.73
2022-07-31T02:19:10.761Z,99782.78
2022-07-31T02:20:16.199Z,99781.10
2022-07-31T02:21:18.863Z,99777.22
2022-07-31T02:22:21.446Z,99777.22
2022-07-31T02:23:25.925Z,99779.18
2022-07-31T02:24:29.354Z,99772.94
2022-07-31T02:25:34.656Z,99779.18
2022-07-31T02:26:39.680Z,99781.10
2022-07-31T02:27:53.921Z,99781.10
2022-07-31T02:28:50.730Z,99779.42
2022-07-31T02:29:56.568Z,99778.73
2022-07-31T02:31:03.118Z,99774.66
2022-07-31T02:32:08.077Z,99782.34
2022-07-31T02:33:23.873Z,99788.83
2022-07-31T02:34:29.896Z,99786.66
2022-07-31T02:35:33.118Z,99788.83
2022-07-31T02:36:36.980Z,99789.06
2022-07-31T02:37:43.604Z,99791.95
2022-07-31T02:38:47.964Z,99787.45
2022-07-31T02:39:54.323Z,99792.22
2022-07-31T02:40:59.497Z,99794.34
2022-07-31T02:42:05.021Z,99796.03
2022-07-31T02:43:10.156Z,99790.41
2022-07-31T02:44:14.310Z,99790.41
2022-07-31T02:45:18.746Z,99796.27
2022-07-31T02:46:22.842Z,99800.14
2022-07-31T02:47:26.299Z,99800.59
2022-07-31T02:48:30.331Z,99800.59
2022-07-31T02:49:35.437Z,99792.91
2022-07-31T02:50:40.657Z,99798.46
2022-07-31T02:51:43.621Z,99794.86
2022-07-31T02:52:47.495Z,99796.54
2022-07-31T02:53:50.836Z,99794.01
2022-07-31T02:54:54.518Z,99791.50
2022-07-31T02:56:00.114Z,99790.41
2022-07-31T02:57:03.974Z,99797.70
2022-07-31T02:58:07.607Z,99799.39
2022-07-31T02:59:10.790Z,99798.56
2022-07-31T03:00:23.859Z,99796.88
2022-07-31T03:01:28.548Z,99800.59
2022-07-31T03:02:36.873Z,99800.72
2022-07-31T03:03:35.697Z,99805.42
2022-07-31T03:04:37.874Z,99796.54
2022-07-31T03:05:40.297Z,99793.18
2022-07-31T03:06:42.815Z,99796.54
2022-07-31T03:07:45.274Z,99799.87
2022-07-31T03:08:47.942Z,99810.56
2022-07-31T03:09:51.933Z,99802.78
2022-07-31T03:11:01.888Z,99798.46
2022-07-31T03:12:05.230Z,99802.20
2022-07-31T03:13:10.094Z,99802.88
2022-07-31T03:14:15.591Z,99795.55
2022-07-31T03:15:21.271Z,99808.06
2022-07-31T03:16:25.994Z,99801.82
2022-07-31T03:17:38.213Z,99806.52
2022-07-31T03:18:34.949Z,99801.92
2022-07-31T03:19:37.534Z,99810.70
2022-07-31T03:20:43.022Z,99810.70
2022-07-31T03:21:46.295Z,99809.98
2022-07-31T03:22:50.708Z,99815.02
2022-07-31T03:23:55.522Z,99819.06
2022-07-31T03:24:59.155Z,99813.20
2022-07-31T03:26:03.678Z,99809.02
2022-07-31T03:27:06.784Z,99809.02
2022-07-31T03:28:10.098Z,99813.44
2022-07-31T03:29:42.635Z,99811.08
2022-07-31T03:30:18.200Z,99808.75
2022-07-31T03:31:21.170Z,99810.42
2022-07-31T03:32:23.424Z,99808.50
2022-07-31T03:33:25.799Z,99805.87
2022-07-31T03:34:28.048Z,99811.76
2022-07-31T03:35:30.510Z,99806.83
2022-07-31T03:36:33.493Z,99807.30
2022-07-31T03:37:35.992Z,99802.37
2022-07-31T03:38:42.301Z,99801.55
2022-07-31T03:39:43.756Z,99804.66
2022-07-31T03:40:47.681Z,99809.70
2022-07-31T03:41:51.642Z,99797.91
2022-07-31T03:42:55.811Z,99802.09
2022-07-31T03:43:59.040Z,99789.74
2022-07-31T03:45:03.337Z,99806.10
2022-07-31T03:46:07.246Z,99802.23
2022-07-31T03:47:09.746Z,99806.69
2022-07-31T03:48:12.656Z,99790.42
2022-07-31T03:49:15.539Z,99800.03
2022-07-31T03:50:19.462Z,99791.14
2022-07-31T03:51:22.303Z,99794.64
2022-07-31T03:52:25.297Z,99790.18
2022-07-31T03:53:28.588Z,99793.78
2022-07-31T03:54:30.819Z,99791.72
2022-07-31T03:55:38.957Z,99802.56
2022-07-31T03:56:45.548Z,99793.41
2022-07-31T03:57:49.183Z,99799.50
2022-07-31T03:58:52.741Z,99803.14
2022-07-31T03:59:57.405Z,99792.58
2022-07-31T04:01:00.820Z,99801.19
2022-07-31T04:02:10.728Z,99797.97
2022-07-31T04:03:16.992Z,99791.72
2022-07-31T04:04:26.620Z,99793.27
2022-07-31T04:05:34.197Z,99796.38
2022-07-31T04:06:37.828Z,99795.27
2022-07-31T04:07:40.058Z,99794.31
2022-07-31T04:08:42.307Z,99785.81
2022-07-31T04:09:44.771Z,99789.14
2022-07-31T04:10:48.834Z,99794.17
2022-07-31T04:11:52.863Z,99793.73
2022-07-31T04:12:55.186Z,99792.05
2022-07-31T04:13:57.923Z,99799.59
2022-07-31T04:14:59.986Z,99791.53
2022-07-31T04:16:03.361Z,99787.65
2022-07-31T04:17:06.435Z,99795.85
2022-07-31T04:18:09.403Z,99790.29
2022-07-31T04:19:16.424Z,99787.65
2022-07-31T04:20:20.482Z,99795.44
2022-07-31T04:21:22.859Z,99792.80
2022-07-31T04:22:26.333Z,99787.27
2022-07-31T04:23:32.231Z,99789.77
2022-07-31T04:24:53.577Z,99785.91
2022-07-31T04:26:20.048Z,99788.80
2022-07-31T04:27:19.335Z,99784.95
2022-07-31T04:28:22.364Z,99796.20
2022-07-31T04:29:24.836Z,99791.62
2022-07-31T04:30:29.043Z,99790.52
2022-07-31T04:31:31.127Z,99795.09
2022-07-31T04:32:35.260Z,99789.17
2022-07-31T04:33:48.725Z,99781.67
2022-07-31T04:34:44.337Z,99790.31
2022-07-31T04:35:47.069Z,99795.06
2022-07-31T04:36:50.185Z,99786.70
2022-07-31T04:37:52.366Z,99786.99
2022-07-31T04:38:55.928Z,99781.52
2022-07-31T04:39:58.016Z,99781.52
2022-07-31T04:41:00.249Z,99776.23
2022-07-31T04:42:03.409Z,99780.97
2022-07-31T04:43:07.758Z,99785.41
2022-07-31T04:44:10.644Z,99788.36
2022-07-31T04:45:17.719Z,99784.86
2022-07-31T04:46:20.030Z,99780.03
2022-07-31T04:47:22.232Z,99788.53
2022-07-31T04:48:26.234Z,99791.59
2022-07-31T04:49:30.981Z,99789.66
2022-07-31T04:50:35.840Z,99790.91
2022-07-31T04:51:38.403Z,99782.14
2022-07-31T04:52:41.276Z,99774.92
2022-07-31T04:53:46.053Z,99781.86
2022-07-31T04:54:48.477Z,99782.42
2022-07-31T04:55:50.864Z,99788.27
2022-07-31T04:56:53.900Z,99781.75
2022-07-31T04:57:56.471Z,99781.05
2022-07-31T04:59:01.762Z,99778.81
2022-07-31T05:00:06.090Z,99779.78
2022-07-31T05:01:08.584Z,99777.70
2022-07-31T05:02:12.207Z,99779.94
2022-07-31T05:03:15.418Z,99780.50
2022-07-31T05:04:18.523Z,99779.37
2022-07-31T05:05:20.714Z,99778.82
2022-07-31T05:06:32.162Z,99785.52
2022-07-31T05:07:34.964Z,99780.23
2022-07-31T05:08:39.856Z,99784.67
2022-07-31T05:09:42.717Z,99783.61
2022-07-31T05:10:45.467Z,99780.97
2022-07-31T05:11:48.253Z,99780.52
2022-07-31T05:12:50.764Z,99792.92
2022-07-31T05:13:55.241Z,99786.92
2022-07-31T05:14:59.058Z,99783.86
2022-07-31T05:16:01.288Z,99779.42
2022-07-31T05:17:03.979Z,99784.41
2022-07-31T05:18:08.042Z,99786.80
2022-07-31T05:19:23.785Z,99787.47
2022-07-31T05:20:44.436Z,99786.49
2022-07-31T05:21:58.118Z,99785.83
2022-07-31T05:23:16.674Z,99785.52
2022-07-31T05:24:22.657Z,99788.88
2022-07-31T05:25:33.926Z,99780.77
2022-07-31T05:26:37.888Z,99778.28
2022-07-31T05:27:41.400Z,99782.45
2022-07-31T05:28:44.377Z,99782.88
2022-07-31T05:29:48.562Z,99782.17
2022-07-31T05:30:51.506Z,99787.59
2022-07-31T05:32:00.062Z,99781.88
2022-07-31T05:32:57.741Z,99777.41
2022-07-31T05:34:00.604Z,99783.25
2022-07-31T05:35:03.013Z,99779.36
2022-07-31T05:36:06.727Z,99781.86
2022-07-31T05:37:09.431Z,99780.18
2022-07-31T05:38:12.617Z,99780.45
2022-07-31T05:39:16.722Z,99774.85
2022-07-31T05:40:33.109Z,99776.38
2022-07-31T05:41:52.518Z,99778.36
2022-07-31T05:43:11.623Z,99770.11
2022-07-31T05:44:32.518Z,99768.16
2022-07-31T05:45:35.601Z,99775.13
2022-07-31T05:46:39.700Z,99769.25
2022-07-31T05:47:42.780Z,99772.29
2022-07-31T05:48:45.288Z,99775.36
2022-07-31T05:49:47.610Z,99776.91
2022-07-31T05:50:51.915Z,99781.20
2022-07-31T05:51:55.340Z,99774.34
2022-07-31T05:52:58.634Z,99777.26
2022-07-31T05:54:19.493Z,99771.37
2022-07-31T05:55:41.828Z,99770.17
2022-07-31T05:56:55.130Z,99778.52
2022-07-31T05:57:59.642Z,99768.01
2022-07-31T05:59:02.414Z,99778.71
2022-07-31T06:00:05.844Z,99781.46
2022-07-31T06:01:13.902Z,99776.84
2022-07-31T06:02:17.730Z,99780.86
2022-07-31T06:03:38.411Z,99772.32
2022-07-31T06:04:42.781Z,99784.45
2022-07-31T06:05:45.154Z,99783.06
2022-07-31T06:06:47.891Z,99779.56
2022-07-31T06:07:51.195Z,99771.34
2022-07-31T06:08:55.330Z,99775.80
2022-07-31T06:09:57.570Z,99776.33
2022-07-31T06:11:00.026Z,99778.86
2022-07-31T06:12:03.919Z,99773.02
2022-07-31T06:13:06.462Z,99780.00
2022-07-31T06:14:08.629Z,99784.45
2022-07-31T06:15:35.791Z,99763.75
2022-07-31T06:16:35.594Z,99772.09
2022-07-31T06:17:43.781Z,99771.80
2022-07-31T06:18:44.733Z,99773.16
2022-07-31T06:19:47.478Z,99779.60
2022-07-31T06:20:51.040Z,99779.77
2022-07-31T06:21:54.020Z,99787.41
2022-07-31T06:22:58.174Z,99779.31
2022-07-31T06:24:02.894Z,99772.33
2022-07-31T06:25:11.906Z,99772.33
2022-07-31T06:26:17.030Z,99778.38
2022-07-31T06:27:33.923Z,99779.23
2022-07-31T06:28:48.046Z,99775.11
2022-07-31T06:29:41.916Z,99781.80
2022-07-31T06:30:35.494Z,99775.71
2022-07-31T06:31:38.733Z,99777.91
2022-07-31T06:32:41.347Z,99779.42
2022-07-31T06:33:43.416Z,99771.00
2022-07-31T06:34:47.420Z,99778.67
2022-07-31T06:35:50.063Z,99775.84
2022-07-31T06:37:00.420Z,99780.55
2022-07-31T06:38:02.882Z,99780.90
2022-07-31T06:39:06.925Z,99781.30
2022-07-31T06:40:15.121Z,99770.37
2022-07-31T06:41:38.853Z,99775.38
2022-07-31T06:42:43.153Z,99766.39
2022-07-31T06:43:47.363Z,99771.70
2022-07-31T06:45:09.390Z,99768.58
2022-07-31T06:46:31.202Z,99767.77
2022-07-31T06:47:52.095Z,99763.79
2022-07-31T06:48:59.062Z,99766.80
2022-07-31T06:50:01.328Z,99753.68
2022-07-31T06:52:14.144Z,99753.52
2022-07-31T06:53:16.498Z,99756.17
2022-07-31T06:54:19.074Z,99757.70
2022-07-31T06:55:23.046Z,99756.39
2022-07-31T06:56:28.552Z,99753.26
2022-07-31T06:57:31.086Z,99749.28
2022-07-31T06:58:33.423Z,99740.63
2022-07-31T06:59:40.229Z,99754.43
2022-07-31T07:00:42.759Z,99747.30
2022-07-31T07:01:45.150Z,99748.50
2022-07-31T07:02:48.692Z,99744.17
2022-07-31T07:03:51.079Z,99738.38
2022-07-31T07:05:05.241Z,99736.89
2022-07-31T07:05:58.060Z,99735.90
2022-07-31T07:07:00.725Z,99737.57
2022-07-31T07:08:03.427Z,99735.73
2022-07-31T07:09:06.272Z,99733.41
2022-07-31T07:10:09.046Z,99735.08
2022-07-31T07:11:31.911Z,99734.57
2022-07-31T07:12:34.775Z,99730.61
2022-07-31T07:13:45.829Z,99741.09
2022-07-31T07:14:41.935Z,99730.14
2022-07-31T07:15:43.998Z,99735.45
2022-07-31T07:16:47.954Z,99729.02
2022-07-31T07:17:51.342Z,99723.52
2022-07-31T07:18:55.976Z,99737.13
2022-07-31T07:19:59.283Z,99731.50
2022-07-31T07:21:01.744Z,99735.34
2022-07-31T07:22:05.808Z,99732.20
2022-07-31T07:23:08.407Z,99730.67
2022-07-31T07:24:15.389Z,99724.88
2022-07-31T07:25:22.458Z,99727.88
2022-07-31T07:26:26.563Z,99725.87
2022-07-31T07:27:29.503Z,99725.55
2022-07-31T07:28:31.711Z,99726.23
2022-07-31T07:29:36.043Z,99727.56
2022-07-31T07:30:39.303Z,99724.41
2022-07-31T07:31:41.752Z,99727.25
2022-07-31T07:32:43.840Z,99727.75
2022-07-31T07:33:47.110Z,99729.90
2022-07-31T07:34:59.967Z,99727.59
2022-07-31T07:35:57.648Z,99726.44
2022-07-31T07:37:00.625Z,99722.11
2022-07-31T07:38:05.275Z,99733.94
2022-07-31T07:39:09.263Z,99715.61
2022-07-31T07:40:12.323Z,99720.45
2022-07-31T07:41:15.061Z,99725.77
2022-07-31T07:42:19.173Z,99719.60
2022-07-31T07:43:21.352Z,99721.95
2022-07-31T07:44:24.678Z,99718.97
2022-07-31T07:45:27.619Z,99720.61
2022-07-31T07:46:31.074Z,99731.11
2022-07-31T07:47:53.869Z,99725.27
2022-07-31T07:48:40.943Z,99724.95
2022-07-31T07:49:45.058Z,99723.95
2022-07-31T07:50:49.243Z,99731.09
2022-07-31T07:52:00.730Z,99706.63
2022-07-31T07:53:18.093Z,99724.63
2022-07-31T07:54:39.750Z,99722.60
2022-07-31T07:55:48.590Z,99725.45
2022-07-31T07:57:19.759Z,99733.11
2022-07-31T07:58:38.883Z,99727.94
2022-07-31T08:00:54.069Z,99726.63
2022-07-31T08:01:57.842Z,99724.28
2022-07-31T08:03:02.902Z,99725.45
2022-07-31T08:04:12.176Z,99725.13
2022-07-31T08:05:16.760Z,99717.96
2022-07-31T08:06:20.755Z,99731.63
2022-07-31T08:07:42.263Z,99730.81
2022-07-31T08:08:36.080Z,99729.47
2022-07-31T08:09:56.214Z,99725.80
2022-07-31T08:11:06.590Z,99721.16
2022-07-31T08:12:20.113Z,99726.63
2022-07-31T08:13:33.405Z,99727.63
2022-07-31T08:14:53.986Z,99720.30
2022-07-31T08:16:07.889Z,99723.64
2022-07-31T08:17:13.067Z,99726.63
2022-07-31T08:18:16.050Z,99717.96
2022-07-31T08:19:19.177Z,99723.64
2022-07-31T08:20:21.855Z,99718.31
2022-07-31T08:21:26.109Z,99715.64
2022-07-31T08:22:28.189Z,99724.63
2022-07-31T08:23:30.549Z,99719.94
2022-07-31T08:24:33.419Z,99718.44
2022-07-31T08:25:35.973Z,99706.61
2022-07-31T08:26:41.419Z,99713.61
2022-07-31T08:27:43.691Z,99713.61
2022-07-31T08:28:49.717Z,99712.92
2022-07-31T08:29:55.935Z,99713.41
2022-07-31T08:31:00.561Z,99706.91
2022-07-31T08:32:03.338Z,99721.59
2022-07-31T08:33:16.644Z,99719.92
2022-07-31T08:34:31.246Z,99711.56
2022-07-31T08:35:25.044Z,99711.91
2022-07-31T08:36:28.373Z,99711.25
2022-07-31T08:38:02.770Z,99709.22
2022-07-31T08:38:37.514Z,99703.56
2022-07-31T08:39:59.215Z,99707.90
2022-07-31T08:41:03.002Z,99709.89
2022-07-31T08:42:09.260Z,99705.23
2022-07-31T08:44:00.300Z,99712.72
2022-07-31T08:44:18.568Z,99704.20
2022-07-31T08:45:22.811Z,99699.18
2022-07-31T08:46:32.786Z,99700.84
2022-07-31T08:47:35.501Z,99703.84
2022-07-31T08:48:40.963Z,99698.18
2022-07-31T08:49:45.704Z,99694.15
2022-07-31T08:50:53.772Z,99699.97
2022-07-31T08:52:24.625Z,99699.30
2022-07-31T08:53:35.755Z,99702.13
2022-07-31T08:54:44.257Z,99698.08
2022-07-31T08:55:55.106Z,99695.23
2022-07-31T08:58:11.578Z,99701.42
2022-07-31T08:59:14.292Z,99698.23
2022-07-31T09:00:18.596Z,99702.20
2022-07-31T09:01:22.956Z,99696.86
2022-07-31T09:02:25.352Z,99694.02
2022-07-31T09:03:46.088Z,99699.67
2022-07-31T09:04:52.596Z,99689.97
2022-07-31T09:05:54.468Z,99684.77
2022-07-31T09:06:57.609Z,99683.95
2022-07-31T09:08:00.010Z,99682.59
2022-07-31T09:09:04.750Z,99682.96
2022-07-31T09:10:26.551Z,99687.63
2022-07-31T09:13:13.164Z,99680.44
2022-07-31T09:14:28.150Z,99675.09
2022-07-31T09:15:31.063Z,99678.44
2022-07-31T09:16:44.209Z,99676.58
2022-07-31T09:17:48.723Z,99676.53
2022-07-31T09:19:02.751Z,99673.52
2022-07-31T09:20:11.252Z,99665.13
2022-07-31T09:21:14.021Z,99657.50
2022-07-31T09:22:24.388Z,99662.47
2022-07-31T09:23:27.887Z,99662.18
2022-07-31T09:24:39.438Z,99667.70
2022-07-31T09:25:37.896Z,99665.13
2022-07-31T09:26:41.499Z,99660.45
2022-07-31T09:27:46.422Z,99669.47
2022-07-31T09:28:48.806Z,99658.45
2022-07-31T09:29:51.267Z,99661.75
2022-07-31T09:31:03.055Z,99668.03
2022-07-31T09:32:16.495Z,99666.97
2022-07-31T09:33:40.279Z,99670.30
2022-07-31T09:34:46.066Z,99662.92
2022-07-31T09:35:52.267Z,99669.83
2022-07-31T09:36:54.857Z,99659.62
2022-07-31T09:38:17.235Z,99658.89
2022-07-31T09:39:35.944Z,99660.18
2022-07-31T09:40:57.120Z,99665.90
2022-07-31T09:42:16.289Z,99661.78
2022-07-31T09:43:34.357Z,99661.39
2022-07-31T09:44:41.154Z,99661.39
2022-07-31T09:45:48.193Z,99659.92
2022-07-31T09:46:50.967Z,99656.05
2022-07-31T09:48:07.568Z,99660.42
2022-07-31T09:49:10.121Z,99656.39
2022-07-31T09:50:16.445Z,99655.19
2022-07-31T09:51:18.996Z,99654.66
2022-07-31T09:52:22.330Z,99650.40
2022-07-31T09:53:25.502Z,99651.88
2022-07-31T09:54:31.608Z,99643.50
2022-07-31T09:55:36.595Z,99644.78
2022-07-31T09:56:40.439Z,99636.02
2022-07-31T09:57:54.097Z,99648.02
2022-07-31T09:58:57.900Z,99644.78
2022-07-31T10:00:00.172Z,99645.70
2022-07-31T10:01:03.684Z,99637.14
2022-07-31T10:02:08.360Z,99633.00
2022-07-31T10:03:16.605Z,99638.70
2022-07-31T10:04:21.607Z,99639.62
2022-07-31T10:05:26.593Z,99639.73
2022-07-31T10:06:33.919Z,99643.14
2022-07-31T10:07:39.269Z,99638.88
2022-07-31T10:08:49.707Z,99643.12
2022-07-31T10:10:06.079Z,99628.80
2022-07-31T10:11:16.427Z,99631.97
2022-07-31T10:12:19.190Z,99631.41
2022-07-31T10:13:23.394Z,99628.58
2022-07-31T10:14:33.479Z,99631.80
2022-07-31T10:15:40.202Z,99637.61
2022-07-31T10:17:03.690Z,99623.95
2022-07-31T10:18:18.982Z,99626.91
2022-07-31T10:19:32.885Z,99624.86
2022-07-31T10:20:55.264Z,99631.51
2022-07-31T10:22:06.588Z,99629.09
2022-07-31T10:23:21.363Z,99620.51
2022-07-31T10:24:28.546Z,99624.39
2022-07-31T10:25:35.975Z,99630.00
2022-07-31T10:26:59.809Z,99618.03
2022-07-31T10:27:45.512Z,99622.78
2022-07-31T10:28:49.397Z,99626.31
2022-07-31T10:29:53.525Z,99621.86
2022-07-31T10:30:57.016Z,99618.79
2022-07-31T10:32:00.278Z,99625.55
2022-07-31T10:33:04.628Z,99610.91
2022-07-31T10:34:17.799Z,99615.97
2022-07-31T10:35:55.700Z,99616.88
2022-07-31T10:37:17.129Z,99616.77
2022-07-31T10:38:47.224Z,99604.20
2022-07-31T10:41:47.430Z,99615.48
2022-07-31T10:43:13.137Z,99617.55
2022-07-31T10:44:29.539Z,99609.42
2022-07-31T10:45:50.955Z,99622.41
2022-07-31T10:46:55.575Z,99620.47
2022-07-31T10:48:01.638Z,99611.34
2022-07-31T10:49:39.620Z,99609.12
2022-07-31T10:51:02.669Z,99614.01
2022-07-31T10:52:07.172Z,99609.47
2022-07-31T10:53:18.445Z,99603.47
2022-07-31T10:54:31.687Z,99606.67
2022-07-31T10:55:38.559Z,99606.34
2022-07-31T10:56:46.225Z,99610.91
2022-07-31T10:58:10.587Z,99609.25
2022-07-31T10:59:14.578Z,99612.87
2022-07-31T11:00:34.665Z,99605.42
2022-07-31T11:01:55.289Z,99602.98
2022-07-31T11:03:19.530Z,99601.52
2022-07-31T11:04:40.494Z,99606.44
2022-07-31T11:06:00.956Z,99605.52
2022-07-31T11:07:15.996Z,99606.59
2022-07-31T11:08:42.412Z,99606.89
2022-07-31T11:09:50.616Z,99599.12
2022-07-31T11:11:13.976Z,99603.05
2022-07-31T11:12:21.041Z,99597.76
2022-07-31T11:13:49.732Z,99599.73
2022-07-31T11:15:22.261Z,99590.73
2022-07-31T11:16:30.062Z,99588.28
2022-07-31T11:18:20.992Z,99590.36
2022-07-31T11:19:04.190Z,99585.79
2022-07-31T11:20:30.349Z,99579.08
2022-07-31T11:21:41.272Z,99585.72
2022-07-31T11:23:01.782Z,99596.87
2022-07-31T11:24:18.842Z,99590.72
2022-07-31T11:25:21.584Z,99585.86
2022-07-31T11:26:33.561Z,99591.44
2022-07-31T11:27:32.606Z,99583.09
2022-07-31T11:28:35.480Z,99574.04
2022-07-31T11:29:58.993Z,99575.31
2022-07-31T11:30:50.283Z,99575.52
2022-07-31T11:31:52.743Z,99574.50
2022-07-31T11:32:54.860Z,99573.05
2022-07-31T11:34:00.752Z,99570.39
2022-07-31T11:35:04.121Z,99580.07
2022-07-31T11:36:10.541Z,99577.42
2022-07-31T11:37:30.579Z,99581.58
2022-07-31T11:38:40.181Z,99577.08
2022-07-31T11:39:43.873Z,99579.55
2022-07-31T11:40:50.939Z,99568.60
2022-07-31T11:41:55.837Z,99572.94
2022-07-31T11:43:25.759Z,99568.20
2022-07-31T11:44:03.503Z,99557.88
2022-07-31T11:45:10.980Z,99562.41
2022-07-31T11:46:14.274Z,99571.28
2022-07-31T11:48:09.418Z,99561.38
2022-07-31T11:48:22.472Z,99568.41
2022-07-31T11:49:39.218Z,99561.19
2022-07-31T11:50:42.866Z,99559.92
2022-07-31T11:51:47.615Z,99562.21
2022-07-31T11:52:49.786Z,99565.91
2022-07-31T11:53:57.438Z,99567.93
2022-07-31T11:55:09.033Z,99561.38
2022-07-31T11:56:14.343Z,99561.75
2022-07-31T11:57:16.570Z,99556.00
2022-07-31T11:58:20.731Z,99560.13
2022-07-31T11:59:45.660Z,99552.64
2022-07-31T12:00:50.091Z,99554.75
2022-07-31T12:01:54.155Z,99546.87
2022-07-31T12:02:56.907Z,99547.31
2022-07-31T12:04:07.551Z,99546.23
2022-07-31T12:05:03.877Z,99551.39
2022-07-31T12:06:08.516Z,99554.08
2022-07-31T12:07:12.523Z,99549.47
2022-07-31T12:08:15.740Z,99555.11
2022-07-31T12:10:02.261Z,99549.27
2022-07-31T12:10:23.901Z,99550.01
2022-07-31T12:11:26.549Z,99541.30
2022-07-31T12:12:28.880Z,99542.56
2022-07-31T12:13:32.505Z,99544.14
2022-07-31T12:14:37.630Z,99543.34
2022-07-31T12:15:39.680Z,99547.64
2022-07-31T12:16:43.172Z,99536.21
2022-07-31T12:17:46.765Z,99541.14
2022-07-31T12:18:54.012Z,99542.80
2022-07-31T12:19:59.886Z,99541.81
2022-07-31T12:21:03.980Z,99548.41
2022-07-31T12:22:14.241Z,99547.61
2022-07-31T12:23:38.412Z,99537.25
2022-07-31T12:24:21.420Z,99542.50
2022-07-31T12:25:23.464Z,99537.02
2022-07-31T12:26:29.654Z,99538.88
2022-07-31T12:27:31.968Z,99544.17
2022-07-31T12:28:34.050Z,99536.64
2022-07-31T12:29:38.151Z,99534.07
2022-07-31T12:30:41.639Z,99529.23
2022-07-31T12:31:53.175Z,99536.61
2022-07-31T12:33:07.038Z,99533.38
2022-07-31T12:34:09.126Z,99533.38
2022-07-31T12:35:15.217Z,99534.73
2022-07-31T12:36:18.419Z,99534.73
2022-07-31T12:37:20.481Z,99536.53
2022-07-31T12:38:40.810Z,99532.49
2022-07-31T12:39:47.462Z,99538.22
2022-07-31T12:40:36.682Z,99531.17
2022-07-31T12:41:42.831Z,99531.65
2022-07-31T12:42:44.983Z,99529.41
2022-07-31T12:43:51.539Z,99530.99
2022-07-31T12:44:53.278Z,99527.69
2022-07-31T12:45:55.299Z,99530.70
2022-07-31T12:46:57.820Z,99538.55
2022-07-31T12:48:00.188Z,99533.45
2022-07-31T12:49:04.260Z,99526.34
2022-07-31T12:50:07.491Z,99529.52
2022-07-31T12:51:09.620Z,99522.97
2022-07-31T12:52:11.745Z,99525.52
2022-07-31T12:53:13.934Z,99529.91
2022-07-31T12:54:16.961Z,99523.28
2022-07-31T12:55:19.774Z,99515.68
2022-07-31T12:56:24.089Z,99522.02
2022-07-31T12:57:34.125Z,99530.38
2022-07-31T12:58:37.426Z,99529.51
2022-07-31T12:59:40.226Z,99535.37
2022-07-31T13:00:42.517Z,99525.94
2022-07-31T13:01:45.705Z,99524.90
2022-07-31T13:02:48.050Z,99523.67
2022-07-31T13:03:50.761Z,99520.10
2022-07-31T13:04:53.855Z,99514.06
2022-07-31T13:05:55.991Z,99514.06
2022-07-31T13:06:58.664Z,99510.05
2022-07-31T13:08:00.720Z,99517.80